Pagina principale
METAR-TAF:

METAR-TAF

Aeroporti :

Siirt, Turchia

latitudine: 37-58-41N, longitudine: 41-50-21E, altezza: 610 m

Osservazione

Il bollettino è stato emesso 5 ore e 19 minuti fa, alle 13:50 UTC
Vento calmo
Temperature 14°C
Umidità 28%
Pressione 1018 hPa
Visibilità 10 km o più
nessuna nube inferiore a 1500 m e nessun cumulonembo

METAR: LTCL 211350Z 00000KT CAVOK 14/M04 Q1018

Ora: 22:09 (19:09 UTC)

Previsione

Il bollettino è stato emesso 5 ore e 29 minuti fa, alle 13:40 UTC
Previsione valida dal 21 alle 15 UTC al 21 alle 24 UTC
Vento 2 kt da direzioni variabili
Visibilità 10 km o più
nessuna nube inferiore a 1500 m e nessun cumulonembo

TAF: LTCL 211340Z 2115/2124 VRB02KT CAVOK

Osservazioni e previsioni meteorologiche di più di 4000 aeroporti (messaggi METAR e TAF).

Le stazioni disponibili sono rappresentate dai dischi gialli e rossi sulla carta.

Puntare il mouse per vedere il nome della stazione.

Clicca sopra per visualizzare le osservazioni e previsioni meteorologiche.

Per cambiare la mappa : fare clic sui pulsanti verdi con una croce nera per ingrandire, il pulsante verde con un trattino per diminuire, o sulla freccia verde per le mappe adiacenti.


METAR-TAF: